sensor_id;sensor_type;location;lat;lon;timestamp;P1;durP1;ratioP1;P2;durP2;ratioP2
16139;SDS011;8175;49.326;12.690;2024-03-23T00:55:57;13.93;;;11.17;;
16139;SDS011;8175;49.326;12.690;2024-03-23T00:58:22;14.23;;;11.53;;
16139;SDS011;8175;49.326;12.690;2024-03-23T01:00:48;13.20;;;10.67;;
16139;SDS011;8175;49.326;12.690;2024-03-23T01:03:13;15.30;;;11.90;;
16139;SDS011;8175;49.326;12.690;2024-03-23T01:05:39;15.50;;;11.67;;
16139;SDS011;8175;49.326;12.690;2024-03-23T01:08:05;15.03;;;11.50;;
16139;SDS011;8175;49.326;12.690;2024-03-23T01:10:31;14.67;;;12.10;;
16139;SDS011;8175;49.326;12.690;2024-03-23T01:12:56;14.37;;;11.63;;
16139;SDS011;8175;49.326;12.690;2024-03-23T01:15:22;15.20;;;11.60;;
16139;SDS011;8175;49.326;12.690;2024-03-23T01:17:48;12.63;;;10.63;;
16139;SDS011;8175;49.326;12.690;2024-03-23T01:20:13;13.53;;;11.13;;
16139;SDS011;8175;49.326;12.690;2024-03-23T01:22:39;13.40;;;11.80;;
16139;SDS011;8175;49.326;12.690;2024-03-23T01:25:05;13.97;;;11.83;;
16139;SDS011;8175;49.326;12.690;2024-03-23T01:27:31;13.97;;;11.70;;
16139;SDS011;8175;49.326;12.690;2024-03-23T01:29:56;14.83;;;11.27;;
16139;SDS011;8175;49.326;12.690;2024-03-23T01:32:22;15.57;;;11.70;;
16139;SDS011;8175;49.326;12.690;2024-03-23T01:34:47;13.60;;;12.13;;
16139;SDS011;8175;49.326;12.690;2024-03-23T01:37:13;13.03;;;10.30;;
16139;SDS011;8175;49.326;12.690;2024-03-23T01:39:39;12.90;;;10.97;;
16139;SDS011;8175;49.326;12.690;2024-03-23T01:42:04;14.20;;;11.43;;
16139;SDS011;8175;49.326;12.690;2024-03-23T01:44:30;13.93;;;9.93;;
16139;SDS011;8175;49.326;12.690;2024-03-23T01:46:56;13.73;;;11.27;;
16139;SDS011;8175;49.326;12.690;2024-03-23T01:49:21;11.73;;;10.30;;
16139;SDS011;8175;49.326;12.690;2024-03-23T01:51:47;16.60;;;11.10;;
16139;SDS011;8175;49.326;12.690;2024-03-23T01:54:13;12.93;;;11.03;;
16139;SDS011;8175;49.326;12.690;2024-03-23T01:56:39;14.67;;;10.60;;
16139;SDS011;8175;49.326;12.690;2024-03-23T01:59:05;13.17;;;10.20;;
16139;SDS011;8175;49.326;12.690;2024-03-23T02:01:37;11.63;;;10.43;;
16139;SDS011;8175;49.326;12.690;2024-03-23T02:04:02;12.17;;;10.37;;
16139;SDS011;8175;49.326;12.690;2024-03-23T02:06:28;14.00;;;10.80;;
16139;SDS011;8175;49.326;12.690;2024-03-23T02:08:57;12.90;;;11.07;;
16139;SDS011;8175;49.326;12.690;2024-03-23T02:11:23;11.53;;;9.60;;
16139;SDS011;8175;49.326;12.690;2024-03-23T02:13:48;12.80;;;10.27;;
16139;SDS011;8175;49.326;12.690;2024-03-23T02:16:14;9.97;;;8.30;;
16139;SDS011;8175;49.326;12.690;2024-03-23T02:18:40;9.67;;;8.37;;
16139;SDS011;8175;49.326;12.690;2024-03-23T02:21:05;9.17;;;7.87;;
16139;SDS011;8175;49.326;12.690;2024-03-23T02:23:31;10.70;;;8.70;;
16139;SDS011;8175;49.326;12.690;2024-03-23T02:25:56;14.57;;;12.17;;
16139;SDS011;8175;49.326;12.690;2024-03-23T02:28:22;15.60;;;11.77;;
16139;SDS011;8175;49.326;12.690;2024-03-23T02:30:48;16.63;;;11.73;;
16139;SDS011;8175;49.326;12.690;2024-03-23T02:33:14;13.87;;;11.30;;
16139;SDS011;8175;49.326;12.690;2024-03-23T02:35:40;13.20;;;10.93;;
16139;SDS011;8175;49.326;12.690;2024-03-23T02:38:06;14.73;;;11.83;;
16139;SDS011;8175;49.326;12.690;2024-03-23T02:40:31;15.10;;;12.87;;
16139;SDS011;8175;49.326;12.690;2024-03-23T02:42:57;14.93;;;12.03;;
16139;SDS011;8175;49.326;12.690;2024-03-23T02:45:23;15.40;;;12.10;;
16139;SDS011;8175;49.326;12.690;2024-03-23T02:47:48;13.40;;;10.70;;
16139;SDS011;8175;49.326;12.690;2024-03-23T02:50:20;16.10;;;12.03;;
16139;SDS011;8175;49.326;12.690;2024-03-23T02:52:46;14.50;;;11.70;;
16139;SDS011;8175;49.326;12.690;2024-03-23T02:55:13;13.17;;;11.17;;
16139;SDS011;8175;49.326;12.690;2024-03-23T02:57:38;14.70;;;11.43;;
16139;SDS011;8175;49.326;12.690;2024-03-23T03:00:04;15.00;;;11.90;;
16139;SDS011;8175;49.326;12.690;2024-03-23T03:02:32;13.97;;;11.53;;
16139;SDS011;8175;49.326;12.690;2024-03-23T03:04:58;15.10;;;11.57;;
16139;SDS011;8175;49.326;12.690;2024-03-23T03:07:23;14.97;;;10.70;;
16139;SDS011;8175;49.326;12.690;2024-03-23T03:09:49;14.53;;;11.27;;
16139;SDS011;8175;49.326;12.690;2024-03-23T03:12:14;15.07;;;11.40;;
16139;SDS011;8175;49.326;12.690;2024-03-23T03:14:40;16.87;;;12.33;;
16139;SDS011;8175;49.326;12.690;2024-03-23T03:17:06;13.90;;;11.90;;
16139;SDS011;8175;49.326;12.690;2024-03-23T03:19:31;13.93;;;11.70;;
16139;SDS011;8175;49.326;12.690;2024-03-23T03:21:57;15.57;;;12.83;;
16139;SDS011;8175;49.326;12.690;2024-03-23T03:24:23;14.50;;;12.37;;
16139;SDS011;8175;49.326;12.690;2024-03-23T03:26:48;14.10;;;12.13;;
16139;SDS011;8175;49.326;12.690;2024-03-23T03:29:15;13.77;;;11.90;;
16139;SDS011;8175;49.326;12.690;2024-03-23T03:31:41;13.67;;;11.60;;
16139;SDS011;8175;49.326;12.690;2024-03-23T03:34:07;14.57;;;12.10;;
16139;SDS011;8175;49.326;12.690;2024-03-23T03:36:33;14.00;;;12.03;;
16139;SDS011;8175;49.326;12.690;2024-03-23T03:38:59;13.33;;;11.93;;
16139;SDS011;8175;49.326;12.690;2024-03-23T03:41:25;15.43;;;12.57;;
16139;SDS011;8175;49.326;12.690;2024-03-23T03:43:50;16.37;;;12.53;;
16139;SDS011;8175;49.326;12.690;2024-03-23T03:46:16;12.20;;;11.03;;
16139;SDS011;8175;49.326;12.690;2024-03-23T03:48:42;14.27;;;11.53;;
16139;SDS011;8175;49.326;12.690;2024-03-23T03:51:10;13.90;;;11.63;;
16139;SDS011;8175;49.326;12.690;2024-03-23T03:53:35;15.23;;;12.47;;
16139;SDS011;8175;49.326;12.690;2024-03-23T03:56:01;12.90;;;11.47;;
16139;SDS011;8175;49.326;12.690;2024-03-23T03:58:27;15.60;;;13.37;;
16139;SDS011;8175;49.326;12.690;2024-03-23T04:00:53;14.77;;;12.13;;
16139;SDS011;8175;49.326;12.690;2024-03-23T04:03:19;16.00;;;13.07;;
16139;SDS011;8175;49.326;12.690;2024-03-23T04:05:54;18.43;;;13.17;;
16139;SDS011;8175;49.326;12.690;2024-03-23T04:08:20;16.83;;;12.67;;
16139;SDS011;8175;49.326;12.690;2024-03-23T04:10:46;15.03;;;12.70;;
16139;SDS011;8175;49.326;12.690;2024-03-23T04:13:15;14.70;;;12.47;;
16139;SDS011;8175;49.326;12.690;2024-03-23T04:15:41;16.60;;;12.57;;
16139;SDS011;8175;49.326;12.690;2024-03-23T04:18:07;14.20;;;12.33;;
16139;SDS011;8175;49.326;12.690;2024-03-23T04:20:33;16.57;;;12.20;;
16139;SDS011;8175;49.326;12.690;2024-03-23T04:22:59;14.37;;;11.33;;
16139;SDS011;8175;49.326;12.690;2024-03-23T04:25:25;14.33;;;12.30;;
16139;SDS011;8175;49.326;12.690;2024-03-23T04:27:50;15.07;;;12.20;;
16139;SDS011;8175;49.326;12.690;2024-03-23T04:30:16;13.93;;;12.03;;
16139;SDS011;8175;49.326;12.690;2024-03-23T04:32:42;15.40;;;12.37;;
16139;SDS011;8175;49.326;12.690;2024-03-23T04:35:08;15.00;;;12.63;;
16139;SDS011;8175;49.326;12.690;2024-03-23T04:37:35;15.03;;;12.30;;
16139;SDS011;8175;49.326;12.690;2024-03-23T04:40:01;13.20;;;11.53;;
16139;SDS011;8175;49.326;12.690;2024-03-23T04:42:28;15.53;;;13.47;;
16139;SDS011;8175;49.326;12.690;2024-03-23T04:44:54;14.73;;;11.90;;
16139;SDS011;8175;49.326;12.690;2024-03-23T04:47:20;14.10;;;12.03;;
16139;SDS011;8175;49.326;12.690;2024-03-23T04:49:45;13.03;;;11.20;;
16139;SDS011;8175;49.326;12.690;2024-03-23T04:52:11;13.87;;;11.53;;
16139;SDS011;8175;49.326;12.690;2024-03-23T04:54:37;11.63;;;10.23;;
16139;SDS011;8175;49.326;12.690;2024-03-23T04:57:05;12.53;;;11.10;;
16139;SDS011;8175;49.326;12.690;2024-03-23T04:59:31;13.90;;;10.73;;
16139;SDS011;8175;49.326;12.690;2024-03-23T05:01:56;11.03;;;9.80;;
16139;SDS011;8175;49.326;12.690;2024-03-23T05:04:22;13.13;;;10.53;;
16139;SDS011;8175;49.326;12.690;2024-03-23T05:06:48;12.43;;;10.83;;
16139;SDS011;8175;49.326;12.690;2024-03-23T05:09:14;11.70;;;10.37;;
16139;SDS011;8175;49.326;12.690;2024-03-23T05:11:39;13.20;;;10.03;;
16139;SDS011;8175;49.326;12.690;2024-03-23T05:14:06;10.70;;;9.43;;
16139;SDS011;8175;49.326;12.690;2024-03-23T05:16:32;11.20;;;10.10;;
16139;SDS011;8175;49.326;12.690;2024-03-23T05:18:59;11.50;;;9.43;;
16139;SDS011;8175;49.326;12.690;2024-03-23T05:21:24;11.23;;;8.83;;
16139;SDS011;8175;49.326;12.690;2024-03-23T05:23:50;12.80;;;8.47;;
16139;SDS011;8175;49.326;12.690;2024-03-23T05:26:16;12.23;;;8.83;;
16139;SDS011;8175;49.326;12.690;2024-03-23T05:28:42;8.93;;;8.00;;
16139;SDS011;8175;49.326;12.690;2024-03-23T05:31:08;11.07;;;8.10;;
16139;SDS011;8175;49.326;12.690;2024-03-23T05:33:35;8.57;;;7.77;;
16139;SDS011;8175;49.326;12.690;2024-03-23T05:36:03;9.00;;;7.23;;
16139;SDS011;8175;49.326;12.690;2024-03-23T05:38:29;8.80;;;7.40;;
16139;SDS011;8175;49.326;12.690;2024-03-23T05:40:55;8.17;;;7.03;;
16139;SDS011;8175;49.326;12.690;2024-03-23T05:43:22;7.40;;;6.57;;
16139;SDS011;8175;49.326;12.690;2024-03-23T05:45:55;7.03;;;6.33;;
16139;SDS011;8175;49.326;12.690;2024-03-23T05:48:21;6.97;;;5.50;;
16139;SDS011;8175;49.326;12.690;2024-03-23T05:50:47;6.63;;;5.73;;
16139;SDS011;8175;49.326;12.690;2024-03-23T05:53:17;6.17;;;5.57;;
16139;SDS011;8175;49.326;12.690;2024-03-23T05:55:45;6.13;;;5.53;;
16139;SDS011;8175;49.326;12.690;2024-03-23T05:58:12;6.40;;;5.80;;
16139;SDS011;8175;49.326;12.690;2024-03-23T06:00:39;9.00;;;6.63;;
16139;SDS011;8175;49.326;12.690;2024-03-23T06:03:05;6.00;;;5.23;;
16139;SDS011;8175;49.326;12.690;2024-03-23T06:05:31;5.17;;;4.67;;
16139;SDS011;8175;49.326;12.690;2024-03-23T06:07:57;5.40;;;4.60;;
16139;SDS011;8175;49.326;12.690;2024-03-23T06:10:22;5.10;;;4.60;;
16139;SDS011;8175;49.326;12.690;2024-03-23T06:12:48;4.67;;;4.27;;
16139;SDS011;8175;49.326;12.690;2024-03-23T06:15:16;5.07;;;4.57;;
16139;SDS011;8175;49.326;12.690;2024-03-23T06:17:45;5.30;;;4.43;;
16139;SDS011;8175;49.326;12.690;2024-03-23T06:20:10;5.37;;;4.87;;
16139;SDS011;8175;49.326;12.690;2024-03-23T06:22:37;6.70;;;5.00;;
16139;SDS011;8175;49.326;12.690;2024-03-23T06:25:03;5.40;;;4.07;;
16139;SDS011;8175;49.326;12.690;2024-03-23T06:27:29;5.67;;;4.23;;
16139;SDS011;8175;49.326;12.690;2024-03-23T06:29:57;4.87;;;4.40;;
16139;SDS011;8175;49.326;12.690;2024-03-23T06:32:23;5.47;;;4.33;;
16139;SDS011;8175;49.326;12.690;2024-03-23T06:34:48;5.10;;;4.13;;
16139;SDS011;8175;49.326;12.690;2024-03-23T06:37:14;4.87;;;4.33;;
16139;SDS011;8175;49.326;12.690;2024-03-23T06:39:39;6.07;;;4.63;;
16139;SDS011;8175;49.326;12.690;2024-03-23T06:42:05;5.57;;;4.30;;
16139;SDS011;8175;49.326;12.690;2024-03-23T06:44:31;4.40;;;3.90;;
16139;SDS011;8175;49.326;12.690;2024-03-23T06:46:57;4.77;;;3.70;;
16139;SDS011;8175;49.326;12.690;2024-03-23T06:49:23;5.63;;;3.80;;
16139;SDS011;8175;49.326;12.690;2024-03-23T06:51:49;7.03;;;3.77;;
16139;SDS011;8175;49.326;12.690;2024-03-23T06:54:15;4.97;;;3.63;;
16139;SDS011;8175;49.326;12.690;2024-03-23T06:56:44;4.17;;;3.57;;
16139;SDS011;8175;49.326;12.690;2024-03-23T06:59:10;4.57;;;4.17;;
16139;SDS011;8175;49.326;12.690;2024-03-23T07:01:35;3.60;;;3.30;;
16139;SDS011;8175;49.326;12.690;2024-03-23T07:04:01;5.20;;;3.83;;
16139;SDS011;8175;49.326;12.690;2024-03-23T07:06:29;7.13;;;4.17;;
16139;SDS011;8175;49.326;12.690;2024-03-23T07:08:55;4.30;;;3.67;;
16139;SDS011;8175;49.326;12.690;2024-03-23T07:11:21;10.20;;;6.30;;
16139;SDS011;8175;49.326;12.690;2024-03-23T07:13:49;7.90;;;6.17;;
16139;SDS011;8175;49.326;12.690;2024-03-23T07:16:15;5.23;;;4.00;;
16139;SDS011;8175;49.326;12.690;2024-03-23T07:18:41;11.17;;;7.17;;
16139;SDS011;8175;49.326;12.690;2024-03-23T07:21:07;8.83;;;5.83;;
16139;SDS011;8175;49.326;12.690;2024-03-23T07:23:33;6.20;;;3.97;;
16139;SDS011;8175;49.326;12.690;2024-03-23T07:25:59;6.30;;;4.70;;
16139;SDS011;8175;49.326;12.690;2024-03-23T07:28:26;3.40;;;3.10;;
16139;SDS011;8175;49.326;12.690;2024-03-23T07:31:02;3.30;;;2.80;;
16139;SDS011;8175;49.326;12.690;2024-03-23T07:33:36;3.20;;;2.70;;
16139;SDS011;8175;49.326;12.690;2024-03-23T07:36:09;3.17;;;2.87;;
16139;SDS011;8175;49.326;12.690;2024-03-23T07:38:35;3.73;;;2.83;;
16139;SDS011;8175;49.326;12.690;2024-03-23T07:41:04;5.97;;;3.63;;
16139;SDS011;8175;49.326;12.690;2024-03-23T07:43:34;3.57;;;3.23;;
16139;SDS011;8175;49.326;12.690;2024-03-23T07:46:00;3.40;;;2.97;;
16139;SDS011;8175;49.326;12.690;2024-03-23T07:48:26;3.20;;;2.90;;
16139;SDS011;8175;49.326;12.690;2024-03-23T07:51:06;2.77;;;2.57;;
16139;SDS011;8175;49.326;12.690;2024-03-23T07:53:33;3.43;;;3.13;;
16139;SDS011;8175;49.326;12.690;2024-03-23T07:58:26;6.80;;;3.80;;
16139;SDS011;8175;49.326;12.690;2024-03-23T08:00:53;4.63;;;3.10;;
16139;SDS011;8175;49.326;12.690;2024-03-23T08:03:19;3.80;;;3.40;;
16139;SDS011;8175;49.326;12.690;2024-03-23T08:05:45;5.43;;;3.63;;
16139;SDS011;8175;49.326;12.690;2024-03-23T08:08:11;4.33;;;3.93;;
16139;SDS011;8175;49.326;12.690;2024-03-23T08:10:57;5.03;;;3.90;;
16139;SDS011;8175;49.326;12.690;2024-03-23T08:13:22;5.20;;;4.03;;
16139;SDS011;8175;49.326;12.690;2024-03-23T08:15:48;4.63;;;4.13;;
16139;SDS011;8175;49.326;12.690;2024-03-23T08:18:13;10.13;;;5.77;;
16139;SDS011;8175;49.326;12.690;2024-03-23T08:20:42;4.80;;;3.93;;
16139;SDS011;8175;49.326;12.690;2024-03-23T08:23:08;5.70;;;4.27;;
16139;SDS011;8175;49.326;12.690;2024-03-23T08:25:34;5.50;;;4.23;;
16139;SDS011;8175;49.326;12.690;2024-03-23T08:28:00;4.77;;;4.23;;
16139;SDS011;8175;49.326;12.690;2024-03-23T08:30:26;4.83;;;3.77;;
16139;SDS011;8175;49.326;12.690;2024-03-23T08:32:53;5.27;;;3.60;;
16139;SDS011;8175;49.326;12.690;2024-03-23T08:35:18;4.87;;;4.07;;
16139;SDS011;8175;49.326;12.690;2024-03-23T08:37:45;5.47;;;4.30;;
16139;SDS011;8175;49.326;12.690;2024-03-23T08:40:10;5.33;;;4.33;;
16139;SDS011;8175;49.326;12.690;2024-03-23T08:42:36;5.33;;;4.77;;
16139;SDS011;8175;49.326;12.690;2024-03-23T08:45:02;5.53;;;4.93;;
16139;SDS011;8175;49.326;12.690;2024-03-23T08:47:28;5.50;;;4.70;;
16139;SDS011;8175;49.326;12.690;2024-03-23T08:49:53;5.97;;;5.33;;
16139;SDS011;8175;49.326;12.690;2024-03-23T08:52:20;7.90;;;5.50;;
16139;SDS011;8175;49.326;12.690;2024-03-23T08:54:48;5.60;;;4.43;;
16139;SDS011;8175;49.326;12.690;2024-03-23T08:57:13;7.10;;;5.23;;
16139;SDS011;8175;49.326;12.690;2024-03-23T08:59:39;6.67;;;5.40;;
16139;SDS011;8175;49.326;12.690;2024-03-23T09:02:05;9.37;;;6.07;;
16139;SDS011;8175;49.326;12.690;2024-03-23T09:04:30;8.33;;;5.30;;
16139;SDS011;8175;49.326;12.690;2024-03-23T09:06:56;6.13;;;5.53;;
16139;SDS011;8175;49.326;12.690;2024-03-23T09:09:24;7.77;;;5.60;;
16139;SDS011;8175;49.326;12.690;2024-03-23T09:11:49;7.53;;;6.57;;
16139;SDS011;8175;49.326;12.690;2024-03-23T09:14:15;7.10;;;5.40;;
16139;SDS011;8175;49.326;12.690;2024-03-23T09:16:40;7.07;;;5.43;;
16139;SDS011;8175;49.326;12.690;2024-03-23T09:19:06;8.07;;;5.70;;
16139;SDS011;8175;49.326;12.690;2024-03-23T09:21:32;9.00;;;6.50;;
16139;SDS011;8175;49.326;12.690;2024-03-23T09:23:58;6.90;;;5.30;;
16139;SDS011;8175;49.326;12.690;2024-03-23T09:26:23;6.10;;;5.33;;
16139;SDS011;8175;49.326;12.690;2024-03-23T09:28:49;7.37;;;5.80;;
16139;SDS011;8175;49.326;12.690;2024-03-23T09:31:15;7.90;;;5.80;;
16139;SDS011;8175;49.326;12.690;2024-03-23T09:33:41;7.60;;;6.10;;
16139;SDS011;8175;49.326;12.690;2024-03-23T09:36:07;6.27;;;5.40;;
16139;SDS011;8175;49.326;12.690;2024-03-23T09:38:33;7.57;;;5.77;;
16139;SDS011;8175;49.326;12.690;2024-03-23T09:41:00;8.37;;;6.40;;
16139;SDS011;8175;49.326;12.690;2024-03-23T09:43:26;8.97;;;6.47;;
16139;SDS011;8175;49.326;12.690;2024-03-23T09:45:51;7.17;;;6.03;;
16139;SDS011;8175;49.326;12.690;2024-03-23T09:48:21;8.60;;;6.93;;
16139;SDS011;8175;49.326;12.690;2024-03-23T09:51:16;6.93;;;5.70;;
16139;SDS011;8175;49.326;12.690;2024-03-23T09:53:42;7.80;;;6.20;;
16139;SDS011;8175;49.326;12.690;2024-03-23T09:56:07;7.30;;;6.33;;
16139;SDS011;8175;49.326;12.690;2024-03-23T09:58:33;7.40;;;6.23;;
16139;SDS011;8175;49.326;12.690;2024-03-23T10:00:59;7.27;;;5.93;;
16139;SDS011;8175;49.326;12.690;2024-03-23T10:03:25;7.43;;;6.47;;
16139;SDS011;8175;49.326;12.690;2024-03-23T10:06:02;8.50;;;6.03;;
16139;SDS011;8175;49.326;12.690;2024-03-23T10:08:30;8.27;;;6.00;;
16139;SDS011;8175;49.326;12.690;2024-03-23T10:10:56;6.57;;;5.57;;
16139;SDS011;8175;49.326;12.690;2024-03-23T10:13:25;7.43;;;5.73;;
16139;SDS011;8175;49.326;12.690;2024-03-23T10:15:56;6.10;;;5.03;;
16139;SDS011;8175;49.326;12.690;2024-03-23T10:18:23;7.17;;;5.60;;
16139;SDS011;8175;49.326;12.690;2024-03-23T10:21:00;8.37;;;5.30;;
16139;SDS011;8175;49.326;12.690;2024-03-23T10:23:36;5.33;;;4.83;;
16139;SDS011;8175;49.326;12.690;2024-03-23T10:28:53;4.27;;;3.87;;
16139;SDS011;8175;49.326;12.690;2024-03-23T10:31:25;3.30;;;3.00;;
16139;SDS011;8175;49.326;12.690;2024-03-23T10:33:55;3.57;;;3.10;;
16139;SDS011;8175;49.326;12.690;2024-03-23T10:36:21;3.83;;;3.10;;
16139;SDS011;8175;49.326;12.690;2024-03-23T10:38:51;2.83;;;2.53;;
16139;SDS011;8175;49.326;12.690;2024-03-23T10:41:18;3.13;;;2.57;;
16139;SDS011;8175;49.326;12.690;2024-03-23T10:43:48;3.40;;;2.57;;
16139;SDS011;8175;49.326;12.690;2024-03-23T10:46:14;2.63;;;2.43;;
16139;SDS011;8175;49.326;12.690;2024-03-23T10:48:40;2.60;;;2.40;;
16139;SDS011;8175;49.326;12.690;2024-03-23T10:51:07;2.67;;;2.47;;
16139;SDS011;8175;49.326;12.690;2024-03-23T10:53:34;3.13;;;2.37;;
16139;SDS011;8175;49.326;12.690;2024-03-23T10:56:01;4.20;;;2.40;;
16139;SDS011;8175;49.326;12.690;2024-03-23T10:58:33;2.90;;;2.53;;
16139;SDS011;8175;49.326;12.690;2024-03-23T11:01:00;2.70;;;2.50;;
16139;SDS011;8175;49.326;12.690;2024-03-23T11:06:04;2.93;;;2.60;;
16139;SDS011;8175;49.326;12.690;2024-03-23T11:08:37;2.67;;;2.40;;
16139;SDS011;8175;49.326;12.690;2024-03-23T11:11:13;1.53;;;1.43;;
16139;SDS011;8175;49.326;12.690;2024-03-23T11:13:43;2.20;;;1.77;;
16139;SDS011;8175;49.326;12.690;2024-03-23T11:16:16;1.93;;;1.50;;
16139;SDS011;8175;49.326;12.690;2024-03-23T11:18:49;2.57;;;2.00;;
16139;SDS011;8175;49.326;12.690;2024-03-23T11:24:17;1.40;;;1.30;;
16139;SDS011;8175;49.326;12.690;2024-03-23T11:26:43;7.53;;;4.40;;
16139;SDS011;8175;49.326;12.690;2024-03-23T11:29:13;2.03;;;1.90;;
16139;SDS011;8175;49.326;12.690;2024-03-23T11:31:46;2.93;;;2.00;;
16139;SDS011;8175;49.326;12.690;2024-03-23T11:34:16;1.77;;;1.60;;
16139;SDS011;8175;49.326;12.690;2024-03-23T11:36:42;1.60;;;1.30;;
16139;SDS011;8175;49.326;12.690;2024-03-23T11:39:18;1.30;;;1.23;;
16139;SDS011;8175;49.326;12.690;2024-03-23T11:41:56;1.20;;;1.10;;
16139;SDS011;8175;49.326;12.690;2024-03-23T11:44:22;1.60;;;1.50;;
16139;SDS011;8175;49.326;12.690;2024-03-23T11:46:50;5.03;;;3.43;;
16139;SDS011;8175;49.326;12.690;2024-03-23T11:49:22;1.20;;;1.10;;
16139;SDS011;8175;49.326;12.690;2024-03-23T11:51:49;2.70;;;1.87;;
16139;SDS011;8175;49.326;12.690;2024-03-23T11:54:15;1.40;;;1.30;;
16139;SDS011;8175;49.326;12.690;2024-03-23T11:56:41;1.13;;;1.03;;
16139;SDS011;8175;49.326;12.690;2024-03-23T12:01:57;0.80;;;0.80;;
16139;SDS011;8175;49.326;12.690;2024-03-23T12:04:28;0.80;;;0.80;;
16139;SDS011;8175;49.326;12.690;2024-03-23T12:07:13;0.67;;;0.60;;
16139;SDS011;8175;49.326;12.690;2024-03-23T12:09:42;1.60;;;0.90;;
16139;SDS011;8175;49.326;12.690;2024-03-23T12:12:15;1.00;;;1.00;;
16139;SDS011;8175;49.326;12.690;2024-03-23T12:14:42;0.77;;;0.77;;
16139;SDS011;8175;49.326;12.690;2024-03-23T12:17:12;1.40;;;1.20;;
16139;SDS011;8175;49.326;12.690;2024-03-23T12:19:39;1.20;;;0.70;;
16139;SDS011;8175;49.326;12.690;2024-03-23T12:22:06;1.37;;;0.70;;
16139;SDS011;8175;49.326;12.690;2024-03-23T12:24:32;0.60;;;0.60;;
16139;SDS011;8175;49.326;12.690;2024-03-23T12:27:03;3.07;;;0.80;;
16139;SDS011;8175;49.326;12.690;2024-03-23T12:29:30;0.50;;;0.50;;
16139;SDS011;8175;49.326;12.690;2024-03-23T12:32:00;0.80;;;0.67;;
16139;SDS011;8175;49.326;12.690;2024-03-23T12:34:27;1.93;;;1.07;;
16139;SDS011;8175;49.326;12.690;2024-03-23T12:36:53;0.67;;;0.67;;
16139;SDS011;8175;49.326;12.690;2024-03-23T12:39:19;1.23;;;1.13;;
16139;SDS011;8175;49.326;12.690;2024-03-23T12:41:48;1.57;;;0.80;;
16139;SDS011;8175;49.326;12.690;2024-03-23T12:44:14;0.90;;;0.73;;
16139;SDS011;8175;49.326;12.690;2024-03-23T12:46:40;1.03;;;0.77;;
16139;SDS011;8175;49.326;12.690;2024-03-23T12:49:07;0.70;;;0.70;;
16139;SDS011;8175;49.326;12.690;2024-03-23T12:51:33;1.23;;;1.13;;
16139;SDS011;8175;49.326;12.690;2024-03-23T12:53:59;1.23;;;1.13;;
16139;SDS011;8175;49.326;12.690;2024-03-23T12:56:24;1.20;;;0.90;;
16139;SDS011;8175;49.326;12.690;2024-03-23T12:58:51;3.20;;;1.33;;
16139;SDS011;8175;49.326;12.690;2024-03-23T13:01:18;31.70;;;16.37;;
16139;SDS011;8175;49.326;12.690;2024-03-23T13:03:46;42.67;;;22.50;;
16139;SDS011;8175;49.326;12.690;2024-03-23T13:06:15;9.33;;;5.97;;
16139;SDS011;8175;49.326;12.690;2024-03-23T13:08:41;38.67;;;21.67;;
16139;SDS011;8175;49.326;12.690;2024-03-23T13:11:09;1.30;;;1.20;;
16139;SDS011;8175;49.326;12.690;2024-03-23T13:13:38;1.30;;;1.13;;
16139;SDS011;8175;49.326;12.690;2024-03-23T13:16:04;2.40;;;1.40;;
16139;SDS011;8175;49.326;12.690;2024-03-23T13:18:31;1.50;;;1.40;;
16139;SDS011;8175;49.326;12.690;2024-03-23T13:20:57;1.40;;;1.30;;
16139;SDS011;8175;49.326;12.690;2024-03-23T13:23:23;2.73;;;1.40;;
16139;SDS011;8175;49.326;12.690;2024-03-23T13:25:50;1.70;;;1.20;;
16139;SDS011;8175;49.326;12.690;2024-03-23T13:28:19;1.30;;;1.10;;
16139;SDS011;8175;49.326;12.690;2024-03-23T13:30:55;2.60;;;1.40;;
16139;SDS011;8175;49.326;12.690;2024-03-23T13:33:22;2.70;;;1.43;;
16139;SDS011;8175;49.326;12.690;2024-03-23T13:35:57;1.90;;;1.53;;
16139;SDS011;8175;49.326;12.690;2024-03-23T13:38:23;3.70;;;2.60;;
16139;SDS011;8175;49.326;12.690;2024-03-23T13:40:50;4.67;;;2.63;;
16139;SDS011;8175;49.326;12.690;2024-03-23T13:43:20;6.70;;;2.97;;
16139;SDS011;8175;49.326;12.690;2024-03-23T13:45:49;2.93;;;1.97;;
16139;SDS011;8175;49.326;12.690;2024-03-23T13:48:19;6.10;;;2.70;;
16139;SDS011;8175;49.326;12.690;2024-03-23T13:50:45;3.13;;;2.10;;
16139;SDS011;8175;49.326;12.690;2024-03-23T13:53:13;3.97;;;1.43;;
16139;SDS011;8175;49.326;12.690;2024-03-23T13:55:45;4.27;;;1.60;;
16139;SDS011;8175;49.326;12.690;2024-03-23T13:58:12;3.93;;;2.57;;
16139;SDS011;8175;49.326;12.690;2024-03-23T14:00:37;2.77;;;2.20;;
16139;SDS011;8175;49.326;12.690;2024-03-23T14:03:03;5.83;;;4.80;;
16139;SDS011;8175;49.326;12.690;2024-03-23T14:05:30;3.10;;;1.67;;
16139;SDS011;8175;49.326;12.690;2024-03-23T14:07:56;2.13;;;1.87;;
16139;SDS011;8175;49.326;12.690;2024-03-23T14:10:22;1.80;;;1.53;;
16139;SDS011;8175;49.326;12.690;2024-03-23T14:12:47;2.60;;;1.47;;
16139;SDS011;8175;49.326;12.690;2024-03-23T14:15:13;2.10;;;1.50;;
16139;SDS011;8175;49.326;12.690;2024-03-23T14:17:38;3.00;;;2.00;;
16139;SDS011;8175;49.326;12.690;2024-03-23T14:20:04;4.10;;;1.43;;
16139;SDS011;8175;49.326;12.690;2024-03-23T14:22:31;2.77;;;1.67;;
16139;SDS011;8175;49.326;12.690;2024-03-23T14:24:57;3.53;;;1.97;;
16139;SDS011;8175;49.326;12.690;2024-03-23T14:27:23;2.87;;;2.00;;
16139;SDS011;8175;49.326;12.690;2024-03-23T14:29:49;3.63;;;2.07;;
16139;SDS011;8175;49.326;12.690;2024-03-23T14:32:15;2.57;;;1.80;;
16139;SDS011;8175;49.326;12.690;2024-03-23T14:34:41;4.30;;;1.90;;
16139;SDS011;8175;49.326;12.690;2024-03-23T14:37:07;3.30;;;1.87;;
16139;SDS011;8175;49.326;12.690;2024-03-23T14:39:33;2.00;;;1.80;;
16139;SDS011;8175;49.326;12.690;2024-03-23T14:42:04;5.10;;;2.30;;
16139;SDS011;8175;49.326;12.690;2024-03-23T14:44:31;4.87;;;2.43;;
16139;SDS011;8175;49.326;12.690;2024-03-23T14:46:57;3.50;;;1.80;;
16139;SDS011;8175;49.326;12.690;2024-03-23T14:49:22;9.37;;;5.53;;
16139;SDS011;8175;49.326;12.690;2024-03-23T14:51:49;6.33;;;4.43;;
16139;SDS011;8175;49.326;12.690;2024-03-23T14:54:15;8.47;;;4.80;;
16139;SDS011;8175;49.326;12.690;2024-03-23T14:56:40;5.87;;;2.20;;
16139;SDS011;8175;49.326;12.690;2024-03-23T14:59:06;4.60;;;3.43;;
16139;SDS011;8175;49.326;12.690;2024-03-23T15:01:33;5.93;;;3.90;;
16139;SDS011;8175;49.326;12.690;2024-03-23T15:03:59;3.40;;;1.40;;
16139;SDS011;8175;49.326;12.690;2024-03-23T15:06:25;4.30;;;2.30;;
16139;SDS011;8175;49.326;12.690;2024-03-23T15:08:51;5.53;;;3.77;;
16139;SDS011;8175;49.326;12.690;2024-03-23T15:11:16;8.60;;;5.70;;
16139;SDS011;8175;49.326;12.690;2024-03-23T15:13:44;3.70;;;2.00;;
16139;SDS011;8175;49.326;12.690;2024-03-23T15:16:10;4.53;;;2.87;;
16139;SDS011;8175;49.326;12.690;2024-03-23T15:18:36;3.40;;;3.10;;
16139;SDS011;8175;49.326;12.690;2024-03-23T15:21:03;1.93;;;1.50;;
16139;SDS011;8175;49.326;12.690;2024-03-23T15:23:31;3.67;;;1.93;;
16139;SDS011;8175;49.326;12.690;2024-03-23T15:25:57;3.73;;;1.83;;
16139;SDS011;8175;49.326;12.690;2024-03-23T15:28:24;3.80;;;2.13;;
16139;SDS011;8175;49.326;12.690;2024-03-23T15:31:03;11.90;;;8.30;;
16139;SDS011;8175;49.326;12.690;2024-03-23T15:33:29;11.13;;;8.10;;
16139;SDS011;8175;49.326;12.690;2024-03-23T15:35:58;28.33;;;14.53;;
16139;SDS011;8175;49.326;12.690;2024-03-23T15:38:24;13.13;;;7.73;;
16139;SDS011;8175;49.326;12.690;2024-03-23T15:40:51;2.90;;;2.00;;
16139;SDS011;8175;49.326;12.690;2024-03-23T15:43:16;7.00;;;6.27;;
16139;SDS011;8175;49.326;12.690;2024-03-23T15:45:42;8.67;;;6.53;;